createdAt,value
2019-03-22T00:02:28.188Z,7.20
2019-03-22T00:05:52.021Z,7.20
2019-03-22T00:09:15.894Z,7.30
2019-03-22T00:12:40.062Z,7.30
2019-03-22T00:16:03.913Z,7.10
2019-03-22T00:19:28.459Z,7.10
2019-03-22T00:22:52.261Z,7.20
2019-03-22T00:26:16.085Z,7.20
2019-03-22T00:29:39.874Z,7.20
2019-03-22T00:33:03.680Z,7.10
2019-03-22T00:36:27.508Z,6.90
2019-03-22T00:39:51.375Z,6.80
2019-03-22T00:43:15.103Z,6.80
2019-03-22T00:46:39.053Z,6.90
2019-03-22T00:50:04.202Z,7.00
2019-03-22T00:53:28.052Z,7.10
2019-03-22T00:56:51.828Z,7.20
2019-03-22T01:00:16.633Z,7.20
2019-03-22T01:03:40.403Z,7.20
2019-03-22T01:07:04.497Z,7.30
2019-03-22T01:10:28.320Z,7.40
2019-03-22T01:13:53.400Z,7.40
2019-03-22T01:17:17.191Z,7.40
2019-03-22T01:20:41.078Z,7.40
2019-03-22T01:24:04.954Z,7.40
2019-03-22T01:27:39.538Z,7.40
2019-03-22T01:30:54.209Z,7.50
2019-03-22T01:34:18.233Z,7.50
2019-03-22T01:37:42.941Z,7.50
2019-03-22T01:41:06.672Z,7.30
2019-03-22T01:44:30.420Z,7.20
2019-03-22T01:47:54.157Z,7.00
2019-03-22T01:51:17.908Z,6.90
2019-03-22T01:54:41.831Z,6.80
2019-03-22T01:58:05.878Z,6.70
2019-03-22T02:01:29.663Z,6.60
2019-03-22T02:04:53.565Z,6.60
2019-03-22T02:08:17.415Z,6.60
2019-03-22T02:11:41.270Z,6.70
2019-03-22T02:15:07.638Z,6.80
2019-03-22T02:18:31.418Z,6.80
2019-03-22T02:21:55.165Z,6.90
2019-03-22T02:25:18.955Z,6.90
2019-03-22T02:28:42.708Z,7.00
2019-03-22T02:32:06.637Z,7.00
2019-03-22T02:35:30.866Z,7.10
2019-03-22T02:38:54.706Z,7.10
2019-03-22T02:42:18.611Z,7.20
2019-03-22T02:45:42.357Z,7.20
2019-03-22T02:49:06.572Z,7.20
2019-03-22T02:52:30.371Z,7.20
2019-03-22T02:55:54.183Z,7.10
2019-03-22T02:59:18.176Z,7.00
2019-03-22T03:02:42.004Z,6.80
2019-03-22T03:06:05.745Z,6.70
2019-03-22T03:09:29.629Z,6.70
2019-03-22T03:13:02.982Z,6.70
2019-03-22T03:16:26.714Z,6.80
2019-03-22T03:19:50.720Z,6.80
2019-03-22T03:23:14.564Z,6.90
2019-03-22T03:26:38.306Z,6.90
2019-03-22T03:30:02.136Z,6.90
2019-03-22T03:33:25.867Z,7.00
2019-03-22T03:36:49.728Z,7.00
2019-03-22T03:40:14.734Z,7.00
2019-03-22T03:43:38.710Z,7.10
2019-03-22T03:47:02.587Z,7.10
2019-03-22T03:50:26.306Z,7.10
2019-03-22T03:53:50.200Z,7.20
2019-03-22T03:57:14.080Z,7.20
2019-03-22T04:00:37.805Z,7.20
2019-03-22T04:04:01.754Z,7.30
2019-03-22T04:07:25.549Z,7.20
2019-03-22T04:10:49.418Z,7.20
2019-03-22T04:14:13.401Z,7.30
2019-03-22T04:17:37.389Z,7.20
2019-03-22T04:21:01.206Z,7.20
2019-03-22T04:24:24.904Z,7.20
2019-03-22T04:27:48.748Z,7.30
2019-03-22T04:31:12.554Z,7.30
2019-03-22T04:34:36.340Z,7.30
2019-03-22T04:38:00.177Z,7.30
2019-03-22T04:41:23.946Z,7.30
2019-03-22T04:44:47.675Z,7.30
2019-03-22T04:48:17.257Z,7.30
2019-03-22T04:51:41.564Z,7.30
2019-03-22T04:55:05.326Z,7.30
2019-03-22T04:58:29.929Z,7.30
2019-03-22T05:01:56.028Z,7.40
2019-03-22T05:05:21.853Z,7.30
2019-03-22T05:08:47.051Z,7.30
2019-03-22T05:12:14.211Z,7.30
2019-03-22T05:15:39.251Z,7.30
2019-03-22T05:19:04.651Z,7.30
2019-03-22T05:22:30.692Z,7.40
2019-03-22T05:25:57.148Z,7.40
2019-03-22T05:29:30.420Z,7.50
2019-03-22T05:32:47.577Z,7.60
2019-03-22T05:36:11.397Z,7.70
2019-03-22T05:39:35.791Z,7.70
2019-03-22T05:42:59.559Z,7.80
2019-03-22T05:46:23.256Z,7.80
2019-03-22T05:49:47.038Z,7.80
2019-03-22T05:53:10.938Z,7.80
2019-03-22T05:56:34.771Z,7.90
2019-03-22T05:59:58.826Z,8.00
2019-03-22T06:03:22.610Z,8.00
2019-03-22T06:06:46.517Z,8.00
2019-03-22T06:10:10.638Z,8.00
2019-03-22T06:13:35.898Z,8.00
2019-03-22T06:16:59.666Z,7.90
2019-03-22T06:20:23.438Z,7.90
2019-03-22T06:23:47.226Z,7.90
2019-03-22T06:27:11.064Z,7.90
2019-03-22T06:30:35.876Z,7.90
2019-03-22T06:33:59.788Z,7.90
2019-03-22T06:37:23.526Z,7.90
2019-03-22T06:40:47.496Z,8.00
2019-03-22T06:44:11.995Z,8.10
2019-03-22T06:47:35.795Z,8.20
2019-03-22T06:50:59.736Z,8.30
2019-03-22T06:54:31.482Z,8.40
2019-03-22T06:57:49.470Z,8.30
2019-03-22T07:01:13.266Z,8.30
2019-03-22T07:04:37.073Z,8.40
2019-03-22T07:08:01.240Z,8.50
2019-03-22T07:11:24.971Z,8.40
2019-03-22T07:14:48.810Z,8.40
2019-03-22T07:18:12.612Z,8.50
2019-03-22T07:21:36.434Z,8.40
2019-03-22T07:25:00.654Z,8.50
2019-03-22T07:28:24.504Z,8.50
2019-03-22T07:31:48.418Z,8.50
2019-03-22T07:35:12.540Z,8.50
2019-03-22T07:38:36.317Z,8.50
2019-03-22T07:42:00.426Z,8.40
2019-03-22T07:45:24.185Z,8.40
2019-03-22T07:48:47.996Z,8.50
2019-03-22T07:52:11.805Z,8.60
2019-03-22T07:55:35.659Z,8.70
2019-03-22T07:58:59.481Z,8.90
2019-03-22T08:02:25.521Z,9.10
2019-03-22T08:05:51.487Z,9.30
2019-03-22T08:09:14.232Z,9.40
2019-03-22T08:12:38.025Z,9.40
2019-03-22T08:16:02.131Z,9.50
2019-03-22T08:19:26.019Z,9.70
2019-03-22T08:22:50.099Z,9.80
2019-03-22T08:26:13.905Z,9.80
2019-03-22T08:29:38.062Z,9.80
2019-03-22T08:33:01.852Z,10.20
2019-03-22T08:36:25.703Z,10.50
2019-03-22T08:39:49.613Z,10.60
2019-03-22T08:43:13.306Z,10.80
2019-03-22T08:46:37.543Z,11.10
2019-03-22T08:50:01.462Z,10.90
2019-03-22T08:53:25.481Z,10.60
2019-03-22T08:56:49.189Z,10.30
2019-03-22T09:00:15.366Z,10.40
2019-03-22T09:03:39.097Z,10.40
2019-03-22T09:07:02.882Z,10.60
2019-03-22T09:10:26.804Z,10.80
2019-03-22T09:13:53.579Z,10.90
2019-03-22T09:17:16.092Z,11.10
2019-03-22T09:20:40.000Z,11.30
2019-03-22T09:24:03.756Z,11.40
2019-03-22T09:27:27.619Z,11.50
2019-03-22T09:30:51.315Z,11.40
2019-03-22T09:34:15.166Z,11.60
2019-03-22T09:37:39.185Z,12.00
2019-03-22T09:41:03.113Z,12.40
2019-03-22T09:44:28.237Z,12.70
2019-03-22T09:47:54.363Z,12.50
2019-03-22T09:51:18.195Z,12.20
2019-03-22T09:54:41.988Z,11.80
2019-03-22T09:58:05.783Z,11.70
2019-03-22T10:01:29.646Z,11.50
2019-03-22T10:04:53.425Z,11.40
2019-03-22T10:08:17.260Z,11.50
2019-03-22T10:11:41.485Z,11.50
2019-03-22T10:15:07.393Z,11.80
2019-03-22T10:18:31.128Z,12.00
2019-03-22T10:21:54.969Z,12.50
2019-03-22T10:25:18.797Z,13.00
2019-03-22T10:28:42.594Z,13.10
2019-03-22T10:32:06.473Z,13.30
2019-03-22T10:35:30.316Z,13.40
2019-03-22T10:38:54.161Z,13.00
2019-03-22T10:42:18.097Z,12.70
2019-03-22T10:45:41.916Z,12.70
2019-03-22T10:49:06.018Z,12.70
2019-03-22T10:52:29.728Z,12.60
2019-03-22T10:55:53.532Z,12.40
2019-03-22T10:59:17.375Z,12.20
2019-03-22T11:02:41.496Z,12.10
2019-03-22T11:06:05.251Z,12.10
2019-03-22T11:09:29.144Z,12.00
2019-03-22T11:12:52.925Z,12.00
2019-03-22T11:16:16.678Z,11.90
2019-03-22T11:19:40.509Z,11.80
2019-03-22T11:23:04.213Z,11.80
2019-03-22T11:26:27.964Z,11.90
2019-03-22T11:29:51.911Z,12.00
2019-03-22T11:33:15.670Z,12.00
2019-03-22T11:36:39.443Z,11.90
2019-03-22T11:40:03.561Z,11.80
2019-03-22T11:43:27.409Z,11.80
2019-03-22T11:46:51.180Z,11.60
2019-03-22T11:50:15.338Z,11.50
2019-03-22T11:53:39.198Z,11.60
2019-03-22T11:57:03.058Z,11.60
2019-03-22T12:00:27.766Z,11.70
2019-03-22T12:03:51.651Z,11.60
2019-03-22T12:07:15.403Z,11.60
2019-03-22T12:10:39.443Z,11.60
2019-03-22T12:14:03.281Z,11.60
2019-03-22T12:17:27.278Z,11.60
2019-03-22T12:20:51.303Z,11.70
2019-03-22T12:24:15.006Z,11.70
2019-03-22T12:27:38.973Z,11.90
2019-03-22T12:31:03.013Z,11.80
2019-03-22T12:34:27.023Z,11.70
2019-03-22T12:37:51.105Z,11.70
2019-03-22T12:41:15.508Z,11.70
2019-03-22T12:44:39.480Z,11.60
2019-03-22T12:48:03.647Z,11.40
2019-03-22T12:51:27.447Z,11.30
2019-03-22T12:54:51.539Z,11.20
2019-03-22T12:58:15.278Z,11.20
2019-03-22T13:01:39.161Z,11.20
2019-03-22T13:05:03.587Z,11.30
2019-03-22T13:08:27.550Z,11.30
2019-03-22T13:11:51.554Z,11.40
2019-03-22T13:15:15.603Z,11.30
2019-03-22T13:18:49.870Z,11.20
2019-03-22T13:22:07.403Z,11.00
2019-03-22T13:25:31.217Z,11.00
2019-03-22T13:28:55.123Z,10.90
2019-03-22T13:32:18.996Z,10.90
2019-03-22T13:35:42.745Z,11.00
2019-03-22T13:39:07.736Z,11.20
2019-03-22T13:42:32.014Z,11.30
2019-03-22T13:45:55.750Z,11.30
2019-03-22T13:49:19.599Z,11.30
2019-03-22T13:52:43.618Z,11.40
2019-03-22T13:56:07.383Z,11.40
2019-03-22T13:59:31.173Z,11.30
2019-03-22T14:03:03.047Z,11.30
2019-03-22T14:06:20.362Z,11.30
2019-03-22T14:09:44.147Z,11.20
2019-03-22T14:13:08.022Z,11.10
2019-03-22T14:16:31.686Z,11.00
2019-03-22T14:19:55.741Z,10.90
2019-03-22T14:23:19.560Z,10.80
2019-03-22T14:26:43.353Z,10.70
2019-03-22T14:30:08.634Z,10.70
2019-03-22T14:33:32.553Z,10.80
2019-03-22T14:36:56.333Z,10.90
2019-03-22T14:40:20.211Z,10.90
2019-03-22T14:43:44.326Z,11.00
2019-03-22T14:47:08.042Z,10.90
2019-03-22T14:50:32.163Z,10.90
2019-03-22T14:53:57.915Z,10.90
2019-03-22T14:57:21.702Z,10.90
2019-03-22T15:00:45.638Z,11.00
2019-03-22T15:04:10.316Z,11.00
2019-03-22T15:07:34.462Z,10.70
2019-03-22T15:10:58.302Z,10.40
2019-03-22T15:14:29.904Z,10.40
2019-03-22T15:18:12.008Z,10.80
2019-03-22T15:21:49.143Z,11.30
2019-03-22T15:25:17.091Z,11.60
2019-03-22T15:28:54.687Z,11.90
2019-03-22T15:32:26.030Z,12.00
2019-03-22T15:35:51.448Z,12.00
2019-03-22T15:39:20.051Z,11.80
2019-03-22T15:42:43.965Z,11.70
2019-03-22T15:46:07.772Z,11.70
2019-03-22T15:49:32.353Z,11.70
2019-03-22T15:52:56.160Z,11.70
2019-03-22T15:56:20.146Z,11.70
2019-03-22T15:59:44.049Z,11.70
2019-03-22T16:03:08.155Z,11.60
2019-03-22T16:06:32.118Z,11.40
2019-03-22T16:09:55.966Z,11.10
2019-03-22T16:13:19.861Z,10.90
2019-03-22T16:16:43.727Z,10.70
2019-03-22T16:20:10.700Z,10.40
2019-03-22T16:23:34.574Z,10.30
2019-03-22T16:26:58.575Z,10.10
2019-03-22T16:30:22.569Z,9.90
2019-03-22T16:33:53.965Z,9.60
2019-03-22T16:37:12.049Z,9.40
2019-03-22T16:40:36.019Z,9.30
2019-03-22T16:44:02.286Z,9.10
2019-03-22T16:47:26.161Z,8.90
2019-03-22T16:50:50.456Z,8.70
2019-03-22T16:54:14.431Z,8.50
2019-03-22T16:57:38.324Z,8.30
2019-03-22T17:01:02.201Z,8.10
2019-03-22T17:04:35.390Z,7.90
2019-03-22T17:07:59.190Z,7.70
2019-03-22T17:11:30.448Z,7.60
2019-03-22T17:14:54.486Z,7.40
2019-03-22T17:18:18.253Z,7.20
2019-03-22T17:21:42.133Z,7.00
2019-03-22T17:25:09.183Z,6.90
2019-03-22T17:28:33.018Z,6.60
2019-03-22T17:31:56.786Z,6.40
2019-03-22T17:35:20.912Z,6.30
2019-03-22T17:38:44.804Z,6.20
2019-03-22T17:42:08.642Z,6.00
2019-03-22T17:45:32.516Z,5.90
2019-03-22T17:48:58.459Z,5.80
2019-03-22T17:52:22.330Z,5.70
2019-03-22T17:55:46.311Z,5.70
2019-03-22T17:59:10.253Z,5.70
2019-03-22T18:02:34.480Z,5.70
2019-03-22T18:05:58.252Z,5.60
2019-03-22T18:09:23.070Z,5.50
2019-03-22T18:12:47.044Z,5.40
2019-03-22T18:16:11.001Z,5.20
2019-03-22T18:19:39.624Z,5.10
2019-03-22T18:23:04.402Z,5.00
2019-03-22T18:26:28.159Z,4.90
2019-03-22T18:29:52.389Z,4.80
2019-03-22T18:33:16.172Z,4.70
2019-03-22T18:36:40.144Z,4.60
2019-03-22T18:40:05.654Z,4.60
2019-03-22T18:43:29.658Z,4.50
2019-03-22T18:46:53.588Z,4.50
2019-03-22T18:50:17.342Z,4.60
2019-03-22T18:53:41.272Z,4.60
2019-03-22T18:57:05.133Z,4.40
2019-03-22T19:00:29.009Z,4.30
2019-03-22T19:03:52.937Z,4.30
2019-03-22T19:07:16.830Z,4.30
2019-03-22T19:10:41.319Z,4.20
2019-03-22T19:14:05.191Z,4.20
2019-03-22T19:17:30.814Z,4.30
2019-03-22T19:20:54.901Z,4.40
2019-03-22T19:24:18.669Z,4.40
2019-03-22T19:27:42.642Z,4.10
2019-03-22T19:31:06.516Z,3.90
2019-03-22T19:34:30.617Z,3.80
2019-03-22T19:37:54.746Z,3.70
2019-03-22T19:41:18.697Z,3.70
2019-03-22T19:44:42.504Z,3.60
2019-03-22T19:48:06.500Z,3.70
2019-03-22T19:51:30.179Z,3.80
2019-03-22T19:54:54.114Z,3.80
2019-03-22T19:58:18.835Z,4.00
2019-03-22T20:01:42.701Z,4.00
2019-03-22T20:05:08.033Z,3.90
2019-03-22T20:08:31.924Z,3.80
2019-03-22T20:11:55.766Z,3.70
2019-03-22T20:15:19.759Z,3.80
2019-03-22T20:18:43.581Z,3.70
2019-03-22T20:22:07.589Z,3.70
2019-03-22T20:25:31.906Z,3.80
2019-03-22T20:28:55.687Z,3.90
2019-03-22T20:32:19.568Z,4.10
2019-03-22T20:35:43.410Z,4.20
2019-03-22T20:39:07.506Z,4.20
2019-03-22T20:42:31.720Z,4.10
2019-03-22T20:45:55.611Z,3.80
2019-03-22T20:49:19.489Z,3.80
2019-03-22T20:52:43.951Z,3.80
2019-03-22T20:56:07.841Z,3.90
2019-03-22T20:59:34.400Z,4.00
2019-03-22T21:02:59.148Z,4.10
2019-03-22T21:06:24.260Z,4.00
2019-03-22T21:09:48.174Z,3.90
2019-03-22T21:13:12.278Z,3.60
2019-03-22T21:16:36.177Z,3.50
2019-03-22T21:20:00.163Z,3.40
2019-03-22T21:23:35.927Z,3.40
2019-03-22T21:26:52.823Z,3.40
2019-03-22T21:30:16.965Z,3.50
2019-03-22T21:33:40.873Z,3.40
2019-03-22T21:37:04.772Z,3.50
2019-03-22T21:40:28.658Z,3.60
2019-03-22T21:43:52.530Z,3.40
2019-03-22T21:47:16.397Z,3.50
2019-03-22T21:50:40.358Z,3.50
2019-03-22T21:54:04.283Z,3.60
2019-03-22T21:57:28.160Z,3.60
2019-03-22T22:00:51.996Z,3.60
2019-03-22T22:04:16.012Z,3.70
2019-03-22T22:07:39.784Z,3.70
2019-03-22T22:11:03.619Z,3.50
2019-03-22T22:14:27.475Z,3.50
2019-03-22T22:17:51.433Z,3.40
2019-03-22T22:21:15.503Z,3.30
2019-03-22T22:24:39.321Z,3.30
2019-03-22T22:28:03.171Z,3.30
2019-03-22T22:31:27.126Z,3.30
2019-03-22T22:34:51.195Z,3.20
2019-03-22T22:38:15.134Z,3.10
2019-03-22T22:41:38.971Z,3.00
2019-03-22T22:45:02.896Z,2.80
2019-03-22T22:48:26.678Z,2.80
2019-03-22T22:51:50.613Z,2.80
2019-03-22T22:55:14.551Z,2.60
2019-03-22T22:58:38.789Z,2.60
2019-03-22T23:02:02.911Z,2.70
2019-03-22T23:05:26.810Z,2.60
2019-03-22T23:08:50.955Z,2.60
2019-03-22T23:12:14.838Z,2.70
2019-03-22T23:15:38.630Z,2.90
2019-03-22T23:19:02.858Z,3.00
2019-03-22T23:22:26.670Z,3.30
2019-03-22T23:25:50.682Z,3.60
2019-03-22T23:29:14.707Z,3.80
2019-03-22T23:32:38.421Z,3.90
2019-03-22T23:36:02.191Z,3.80
2019-03-22T23:39:26.117Z,3.70
2019-03-22T23:42:49.930Z,3.60
2019-03-22T23:46:13.955Z,3.70
2019-03-22T23:49:37.868Z,3.60
2019-03-22T23:53:01.583Z,3.60
2019-03-22T23:56:25.391Z,3.50
2019-03-22T23:59:49.119Z,3.20
